Time;durP1;ratioP1;P1;durP2;ratioP2;P2;SDS_P1;SDS_P2;PMS_P1;PMS_P2;Temp;Humidity;BMP_temperature;BMP_pressure;BME280_temperature;BME280_humidity;BME280_pressure;Samples;Min_cycle;Max_cycle;Signal;HPM_P1;HPM_P2
2023/11/27 00:00:39;;;;;;;;;;;;;;;2.95;100.00;100605.84;6199829;23;19920;-77
2023/11/27 00:03:04;;;;;;;;;;;;;;;2.97;100.00;100598.53;6186640;23;19999;-77
2023/11/27 00:06:08;;;;;;;;;;;;;;;2.98;100.00;100597.56;6189925;23;20339;-77
2023/11/27 00:08:33;;;;;;;;;;;;;;;2.99;100.00;100588.59;6173616;23;19923;-77
2023/11/27 00:10:58;;;;;;;;;;;;;;;2.97;100.00;100592.41;6185993;23;19936;-78
2023/11/27 00:13:24;;;;;;;;;;;;;;;2.94;100.00;100582.88;6185980;23;20333;-78
2023/11/27 00:15:49;;;;;;;;;;;;;;;2.96;100.00;100582.75;6186646;23;20325;-78
2023/11/27 00:18:14;;;;;;;;;;;;;;;2.95;100.00;100586.41;6187938;23;20364;-77
2023/11/27 00:20:39;;;;;;;;;;;;;;;2.93;100.00;100581.22;6191586;23;20329;-78
2023/11/27 00:23:05;;;;;;;;;;;;;;;2.94;100.00;100577.56;6193698;23;20435;-79
2023/11/27 00:25:30;;;;;;;;;;;;;;;2.92;100.00;100573.41;6191189;23;20321;-78
2023/11/27 00:27:55;;;;;;;;;;;;;;;2.92;100.00;100565.44;6193746;23;19912;-79
2023/11/27 00:30:20;;;;;;;;;;;;;;;2.89;100.00;100558.59;6185642;23;19971;-79
2023/11/27 00:32:45;;;;;;;;;;;;;;;2.88;100.00;100547.13;6184873;23;19912;-79
2023/11/27 00:35:11;;;;;;;;;;;;;;;2.86;100.00;100549.09;6186115;23;19917;-79
2023/11/27 00:37:36;;;;;;;;;;;;;;;2.92;100.00;100542.31;6187557;23;19927;-79
2023/11/27 00:40:01;;;;;;;;;;;;;;;2.94;100.00;100526.22;6186966;23;19927;-79
2023/11/27 00:42:26;;;;;;;;;;;;;;;2.92;100.00;100531.69;6186298;23;19916;-79
2023/11/27 00:44:52;;;;;;;;;;;;;;;2.81;100.00;100527.47;6185971;23;19919;-79
2023/11/27 00:47:17;;;;;;;;;;;;;;;2.86;100.00;100522.50;6185214;23;19916;-78
2023/11/27 00:49:42;;;;;;;;;;;;;;;2.74;100.00;100518.44;6185407;23;19961;-79
2023/11/27 00:52:07;;;;;;;;;;;;;;;2.81;100.00;100516.84;6186331;23;19912;-79
2023/11/27 00:54:33;;;;;;;;;;;;;;;2.80;100.00;100501.88;6185823;23;19912;-78
2023/11/27 00:56:58;;;;;;;;;;;;;;;2.82;100.00;100505.22;6191523;23;19951;-78
2023/11/27 00:59:23;;;;;;;;;;;;;;;2.79;100.00;100489.56;6197028;23;19912;-78
2023/11/27 01:01:49;;;;;;;;;;;;;;;2.77;100.00;100494.22;6185696;23;19916;-78
2023/11/27 01:04:14;;;;;;;;;;;;;;;2.73;100.00;100487.53;6185032;23;19967;-78
2023/11/27 01:06:39;;;;;;;;;;;;;;;2.76;100.00;100491.69;6186588;23;19916;-79
2023/11/27 01:09:06;;;;;;;;;;;;;;;2.73;100.00;100484.88;6184483;23;19913;-78
2023/11/27 01:11:31;;;;;;;;;;;;;;;2.71;100.00;100470.88;6184944;23;19954;-78
2023/11/27 01:13:56;;;;;;;;;;;;;;;2.71;100.00;100474.41;6186241;23;19912;-78
2023/11/27 01:16:22;;;;;;;;;;;;;;;2.77;100.00;100470.28;6185877;23;20341;-79
2023/11/27 01:18:47;;;;;;;;;;;;;;;2.71;100.00;100465.56;6184736;23;20333;-78
2023/11/27 01:21:12;;;;;;;;;;;;;;;2.72;100.00;100468.09;6186242;23;19919;-79
2023/11/27 01:23:37;;;;;;;;;;;;;;;2.60;100.00;100460.53;6186473;23;19990;-79
2023/11/27 01:26:06;;;;;;;;;;;;;;;2.71;100.00;100453.13;6184066;23;19916;-79
2023/11/27 01:28:31;;;;;;;;;;;;;;;2.71;100.00;100449.63;6185716;23;19987;-79
2023/11/27 01:30:56;;;;;;;;;;;;;;;2.70;100.00;100450.63;6185537;23;19974;-79
2023/11/27 01:33:22;;;;;;;;;;;;;;;2.68;100.00;100441.97;6184221;23;19924;-78
2023/11/27 01:35:47;;;;;;;;;;;;;;;2.69;100.00;100444.47;6185249;23;19917;-79
2023/11/27 01:38:12;;;;;;;;;;;;;;;2.70;100.00;100442.66;6185602;23;19912;-79
2023/11/27 01:40:37;;;;;;;;;;;;;;;2.71;100.00;100441.66;6184484;23;19912;-79
2023/11/27 01:43:07;;;;;;;;;;;;;;;2.66;100.00;100431.50;6185715;23;19912;-79
2023/11/27 01:45:32;;;;;;;;;;;;;;;2.67;100.00;100434.97;6186139;23;19999;-79
2023/11/27 01:47:57;;;;;;;;;;;;;;;2.68;100.00;100426.88;6184328;23;19950;-79
2023/11/27 01:50:23;;;;;;;;;;;;;;;2.67;100.00;100422.53;6185758;23;19912;-79
2023/11/27 01:52:50;;;;;;;;;;;;;;;2.69;100.00;100425.03;6160251;23;19927;-79
2023/11/27 01:55:15;;;;;;;;;;;;;;;2.70;100.00;100426.69;6184242;23;19941;-79
2023/11/27 01:57:40;;;;;;;;;;;;;;;2.69;100.00;100412.59;6185388;23;19974;-79
2023/11/27 02:00:07;;;;;;;;;;;;;;;2.69;100.00;100414.41;6160017;23;19916;-79
2023/11/27 02:02:32;;;;;;;;;;;;;;;2.70;100.00;100397.47;6184823;23;19919;-79
2023/11/27 02:04:57;;;;;;;;;;;;;;;2.69;100.00;100409.09;6158833;23;19913;-79
2023/11/27 02:07:22;;;;;;;;;;;;;;;2.72;100.00;100398.13;6185283;23;19912;-79
2023/11/27 02:09:48;;;;;;;;;;;;;;;2.67;100.00;100387.13;6158479;23;19943;-79
2023/11/27 02:12:13;;;;;;;;;;;;;;;2.68;100.00;100388.81;6185319;23;19915;-79
2023/11/27 02:14:38;;;;;;;;;;;;;;;2.72;100.00;100387.50;6185792;23;19912;-79
2023/11/27 02:17:03;;;;;;;;;;;;;;;2.72;100.00;100382.19;6185173;23;19912;-79
2023/11/27 02:19:29;;;;;;;;;;;;;;;2.72;100.00;100374.22;6195113;23;19922;-78
2023/11/27 02:21:54;;;;;;;;;;;;;;;2.71;100.00;100375.22;6193843;23;19912;-79
2023/11/27 02:24:19;;;;;;;;;;;;;;;2.71;100.00;100370.75;6185514;23;19912;-79
2023/11/27 02:26:44;;;;;;;;;;;;;;;2.66;100.00;100369.53;6186086;23;19920;-79
2023/11/27 02:29:09;;;;;;;;;;;;;;;2.69;100.00;100359.44;6188013;23;19913;-79
2023/11/27 02:31:35;;;;;;;;;;;;;;;2.70;100.00;100352.28;6187086;23;19924;-78
2023/11/27 02:34:00;;;;;;;;;;;;;;;2.68;100.00;100349.78;6185774;23;19923;-79
2023/11/27 02:36:25;;;;;;;;;;;;;;;2.61;100.00;100343.44;6185891;23;19912;-79
2023/11/27 02:38:51;;;;;;;;;;;;;;;2.66;100.00;100343.78;6186239;23;19955;-79
2023/11/27 02:41:16;;;;;;;;;;;;;;;2.65;100.00;100334.16;6185991;23;19942;-78
2023/11/27 02:43:44;;;;;;;;;;;;;;;2.67;100.00;100331.31;6187443;23;19928;-78
2023/11/27 02:46:09;;;;;;;;;;;;;;;2.70;100.00;100321.22;6187212;23;20380;-78
2023/11/27 02:48:35;;;;;;;;;;;;;;;2.69;100.00;100318.72;6189967;23;19912;-78
2023/11/27 02:51:06;;;;;;;;;;;;;;;2.67;100.00;100316.22;6196154;23;19913;-78
2023/11/27 02:53:32;;;;;;;;;;;;;;;2.66;100.00;100309.25;6194358;23;19919;-78
2023/11/27 02:56:00;;;;;;;;;;;;;;;2.65;100.00;100296.94;6192818;23;19916;-78
2023/11/27 02:58:26;;;;;;;;;;;;;;;2.61;100.00;100302.75;6191409;23;19916;-79
2023/11/27 03:00:51;;;;;;;;;;;;;;;2.63;100.00;100300.75;6185035;23;20296;-79
2023/11/27 03:03:17;;;;;;;;;;;;;;;2.60;100.00;100303.72;6184644;23;19946;-79
2023/11/27 03:05:42;;;;;;;;;;;;;;;2.61;100.00;100284.97;6184021;23;19908;-79
2023/11/27 03:08:07;;;;;;;;;;;;;;;2.63;100.00;100287.47;6185284;23;19916;-79
2023/11/27 03:10:33;;;;;;;;;;;;;;;2.57;100.00;100279.13;6184121;23;20348;-79
2023/11/27 03:12:58;;;;;;;;;;;;;;;2.52;100.00;100270.81;6183024;23;19913;-79
2023/11/27 03:15:23;;;;;;;;;;;;;;;2.55;100.00;100264.34;6184896;23;19948;-78
2023/11/27 03:17:48;;;;;;;;;;;;;;;2.55;100.00;100259.88;6183463;23;19966;-83
2023/11/27 03:20:14;;;;;;;;;;;;;;;2.57;100.00;100255.22;6185858;23;19919;-79
2023/11/27 03:22:39;;;;;;;;;;;;;;;2.56;100.00;100253.56;6186611;23;19913;-79
2023/11/27 03:25:05;;;;;;;;;;;;;;;2.55;100.00;100249.22;6185473;23;19912;-79
2023/11/27 03:27:30;;;;;;;;;;;;;;;2.55;100.00;100248.41;6185479;23;19999;-78
2023/11/27 03:29:55;;;;;;;;;;;;;;;2.57;100.00;100243.75;6184774;23;20000;-78
2023/11/27 03:32:20;;;;;;;;;;;;;;;2.55;100.00;100233.28;6183187;23;19913;-77
2023/11/27 03:34:45;;;;;;;;;;;;;;;2.53;100.00;100226.47;6184540;23;19912;-78
2023/11/27 03:37:11;;;;;;;;;;;;;;;2.50;100.00;100213.50;6185720;23;19923;-78
2023/11/27 03:39:39;;;;;;;;;;;;;;;2.54;100.00;100221.00;6185881;23;19947;-80
2023/11/27 03:42:04;;;;;;;;;;;;;;;2.46;100.00;100213.00;6186812;23;19920;-81
2023/11/27 03:44:30;;;;;;;;;;;;;;;2.50;100.00;100203.72;6185838;23;20321;-78
2023/11/27 03:46:55;;;;;;;;;;;;;;;2.51;100.00;100204.56;6183525;23;20313;-78
2023/11/27 03:49:20;;;;;;;;;;;;;;;2.46;100.00;100197.06;6184265;23;20325;-78
2023/11/27 03:51:45;;;;;;;;;;;;;;;2.50;100.00;100192.25;6186622;23;19912;-78
2023/11/27 03:54:14;;;;;;;;;;;;;;;2.49;100.00;100186.09;6185375;23;19932;-78
2023/11/27 03:56:40;;;;;;;;;;;;;;;2.41;100.00;100188.75;6185512;23;19919;-78
2023/11/27 03:59:05;;;;;;;;;;;;;;;2.40;100.00;100171.13;6185310;23;19983;-78
2023/11/27 04:01:30;;;;;;;;;;;;;;;2.42;100.00;100169.16;6183157;23;19916;-78
2023/11/27 04:03:56;;;;;;;;;;;;;;;2.43;100.00;100170.81;6184046;23;19967;-78
2023/11/27 04:06:33;;;;;;;;;;;;;;;2.41;100.00;100162.19;6185503;23;19913;-78
2023/11/27 04:08:59;;;;;;;;;;;;;;;2.40;100.00;100158.66;6184174;23;19912;-78
2023/11/27 04:11:27;;;;;;;;;;;;;;;2.38;100.00;100151.88;6186529;23;19916;-78
2023/11/27 04:13:52;;;;;;;;;;;;;;;2.34;100.00;100151.38;6187726;23;19987;-79
2023/11/27 04:16:17;;;;;;;;;;;;;;;2.36;100.00;100153.84;6187039;23;19947;-78
2023/11/27 04:18:43;;;;;;;;;;;;;;;2.36;100.00;100143.22;6188174;23;19942;-78
2023/11/27 04:21:08;;;;;;;;;;;;;;;2.36;100.00;100135.25;6191230;23;20647;-78
2023/11/27 04:23:33;;;;;;;;;;;;;;;2.29;100.00;100127.09;6206578;23;19912;-78
2023/11/27 04:25:58;;;;;;;;;;;;;;;2.31;100.00;100125.13;6202419;23;19912;-78
2023/11/27 04:28:24;;;;;;;;;;;;;;;2.29;100.00;100121.78;6190557;23;19919;-78
2023/11/27 04:30:50;;;;;;;;;;;;;;;2.34;100.00;100116.00;6186557;23;20333;-78
2023/11/27 04:33:15;;;;;;;;;;;;;;;2.31;100.00;100103.88;6186656;23;19913;-79
2023/11/27 04:35:41;;;;;;;;;;;;;;;2.29;100.00;100099.72;6187037;23;19923;-78
2023/11/27 04:38:06;;;;;;;;;;;;;;;2.26;100.00;100103.50;6186221;23;19918;-78
2023/11/27 04:40:31;;;;;;;;;;;;;;;2.24;100.00;100097.53;6186087;23;19916;-78
2023/11/27 04:42:57;;;;;;;;;;;;;;;2.24;100.00;100090.41;6185551;23;20556;-78
2023/11/27 04:45:22;;;;;;;;;;;;;;;2.20;100.00;100083.75;6185936;23;19916;-78
2023/11/27 04:47:47;;;;;;;;;;;;;;;2.21;100.00;100088.06;6185624;23;19979;-78
2023/11/27 04:50:12;;;;;;;;;;;;;;;2.16;100.00;100079.75;6186068;23;19908;-78
2023/11/27 04:52:38;;;;;;;;;;;;;;;2.20;100.00;100072.31;6186638;23;19927;-79
2023/11/27 04:55:03;;;;;;;;;;;;;;;2.17;100.00;100062.00;6186064;23;20428;-78
2023/11/27 04:57:28;;;;;;;;;;;;;;;2.15;100.00;100062.16;6185279;23;20277;-80
2023/11/27 04:59:55;;;;;;;;;;;;;;;2.18;100.00;100053.06;6188538;23;19927;-86
2023/11/27 05:02:20;;;;;;;;;;;;;;;2.18;100.00;100056.53;6189686;23;19926;-83
2023/11/27 05:04:45;;;;;;;;;;;;;;;2.14;100.00;100044.56;6197498;23;19912;-79
2023/11/27 05:07:11;;;;;;;;;;;;;;;2.22;100.00;100049.06;6185618;23;19962;-77
2023/11/27 05:09:38;;;;;;;;;;;;;;;2.22;100.00;100041.09;6185362;23;20249;-79
2023/11/27 05:12:04;;;;;;;;;;;;;;;2.14;100.00;100036.59;6185194;23;19967;-78
2023/11/27 05:14:29;;;;;;;;;;;;;;;2.13;100.00;100032.28;6186032;23;20378;-78
2023/11/27 05:16:54;;;;;;;;;;;;;;;2.12;100.00;100031.44;6185469;23;19924;-78
2023/11/27 05:19:19;;;;;;;;;;;;;;;2.10;100.00;100014.03;6185073;23;19912;-78
2023/11/27 05:21:45;;;;;;;;;;;;;;;2.11;100.00;100016.50;6185963;23;19923;-79
2023/11/27 05:24:10;;;;;;;;;;;;;;;2.08;100.00;100006.22;6185110;23;19920;-79
2023/11/27 05:26:35;;;;;;;;;;;;;;;2.13;100.00;100000.41;6185083;23;19918;-79
2023/11/27 05:29:00;;;;;;;;;;;;;;;2.12;100.00;100001.41;6186501;23;19919;-79
2023/11/27 05:31:26;;;;;;;;;;;;;;;2.04;100.00;99993.44;6184301;23;19912;-78
2023/11/27 05:33:51;;;;;;;;;;;;;;;2.06;100.00;99983.50;6185830;23;19967;-79
2023/11/27 05:36:17;;;;;;;;;;;;;;;2.06;100.00;99972.88;6186110;23;20322;-78
2023/11/27 05:38:42;;;;;;;;;;;;;;;2.07;100.00;99975.34;6184674;23;19936;-77
2023/11/27 05:41:08;;;;;;;;;;;;;;;2.08;100.00;99961.09;6185861;23;19916;-78
2023/11/27 05:43:33;;;;;;;;;;;;;;;2.04;100.00;99958.94;6186645;23;19916;-78
2023/11/27 05:46:01;;;;;;;;;;;;;;;2.05;100.00;99949.97;6184526;23;20305;-78
2023/11/27 05:48:26;;;;;;;;;;;;;;;2.03;100.00;99947.47;6185771;23;19913;-77
2023/11/27 05:50:51;;;;;;;;;;;;;;;2.05;100.00;99940.16;6185870;23;19996;-78
2023/11/27 05:53:16;;;;;;;;;;;;;;;1.99;100.00;99930.22;6184490;23;20062;-79
2023/11/27 05:55:42;;;;;;;;;;;;;;;2.03;100.00;99928.88;6185680;23;20233;-78
2023/11/27 05:58:08;;;;;;;;;;;;;;;2.03;100.00;99930.72;6186765;23;19926;-78
2023/11/27 06:00:33;;;;;;;;;;;;;;;2.03;100.00;99933.38;6186219;23;20249;-80
2023/11/27 06:02:58;;;;;;;;;;;;;;;2.03;100.00;99925.41;6186021;23;20381;-79
2023/11/27 06:05:23;;;;;;;;;;;;;;;2.02;100.00;99926.41;6186840;23;20245;-80
2023/11/27 06:07:49;;;;;;;;;;;;;;;1.99;100.00;99924.91;6184986;23;19912;-79
2023/11/27 06:10:14;;;;;;;;;;;;;;;1.95;100.00;99907.66;6185418;23;19940;-79
2023/11/27 06:12:39;;;;;;;;;;;;;;;1.96;100.00;99909.31;6186857;23;19923;-80
2023/11/27 06:15:05;;;;;;;;;;;;;;;1.96;100.00;99910.13;6185615;23;20345;-80
2023/11/27 06:17:30;;;;;;;;;;;;;;;1.94;100.00;99909.44;6185693;23;20325;-80
2023/11/27 06:19:55;;;;;;;;;;;;;;;1.96;100.00;99904.00;6186706;23;20281;-80
2023/11/27 06:22:21;;;;;;;;;;;;;;;2.02;100.00;99897.19;6185133;23;20236;-80
2023/11/27 06:24:47;;;;;;;;;;;;;;;2.08;100.00;99902.66;6189204;23;20281;-79
2023/11/27 06:27:12;;;;;;;;;;;;;;;2.10;100.00;99894.56;6198603;23;19912;-79
2023/11/27 06:29:37;;;;;;;;;;;;;;;2.11;100.00;99901.53;6187870;23;19916;-79
2023/11/27 06:32:03;;;;;;;;;;;;;;;2.11;100.00;99885.59;6186768;23;19995;-79
2023/11/27 06:34:28;;;;;;;;;;;;;;;2.08;100.00;99888.59;6188590;23;19913;-79
2023/11/27 06:36:57;;;;;;;;;;;;;;;2.06;100.00;99888.72;6189085;23;19962;-79
2023/11/27 06:39:34;;;;;;;;;;;;;;;2.09;100.00;99879.63;6198275;23;19900;-79
2023/11/27 06:41:59;;;;;;;;;;;;;;;2.11;100.00;99878.47;6186180;23;19947;-80
2023/11/27 06:44:24;;;;;;;;;;;;;;;2.11;100.00;99867.03;6185811;23;19939;-79
2023/11/27 06:46:52;;;;;;;;;;;;;;;2.08;100.00;99864.69;6185113;23;19912;-78
2023/11/27 06:49:18;;;;;;;;;;;;;;;2.10;100.00;99875.97;6185409;23;19943;-80
2023/11/27 06:51:43;;;;;;;;;;;;;;;2.09;100.00;99864.50;6186056;23;20317;-80
2023/11/27 06:54:08;;;;;;;;;;;;;;;2.03;100.00;99857.19;6185320;23;20313;-80
2023/11/27 06:56:33;;;;;;;;;;;;;;;2.10;100.00;99846.78;6184860;23;19944;-80
2023/11/27 06:59:03;;;;;;;;;;;;;;;2.09;100.00;99861.03;6184706;23;20206;-80
2023/11/27 07:01:28;;;;;;;;;;;;;;;2.09;100.00;99851.25;6186162;23;20008;-78
2023/11/27 07:03:54;;;;;;;;;;;;;;;2.11;100.00;99843.13;6184224;23;20321;-77
2023/11/27 07:06:19;;;;;;;;;;;;;;;2.10;100.00;99836.16;6185219;23;19912;-78
2023/11/27 07:08:45;;;;;;;;;;;;;;;2.17;100.00;99837.13;6186739;23;19912;-78
2023/11/27 07:11:10;;;;;;;;;;;;;;;2.12;100.00;99828.81;6185647;23;19987;-78
2023/11/27 07:13:35;;;;;;;;;;;;;;;2.14;100.00;99829.50;6186279;23;19912;-78
2023/11/27 07:16:01;;;;;;;;;;;;;;;2.13;100.00;99822.53;6184331;23;19912;-78
2023/11/27 07:18:29;;;;;;;;;;;;;;;2.16;100.00;99829.34;6184160;23;19912;-78
2023/11/27 07:20:54;;;;;;;;;;;;;;;2.19;100.00;99813.09;6186116;23;19912;-80
2023/11/27 07:23:20;;;;;;;;;;;;;;;2.19;100.00;99813.09;6186436;23;19912;-78
2023/11/27 07:25:46;;;;;;;;;;;;;;;2.14;100.00;99810.91;6184960;23;19913;-78
2023/11/27 07:28:11;;;;;;;;;;;;;;;2.17;100.00;99805.25;6184846;23;19919;-78
2023/11/27 07:30:36;;;;;;;;;;;;;;;2.17;100.00;99805.25;6184169;23;19912;-78
2023/11/27 07:33:02;;;;;;;;;;;;;;;2.21;100.00;99795.97;6184586;23;19912;-78
2023/11/27 07:35:28;;;;;;;;;;;;;;;2.21;100.00;99803.09;6187962;23;19963;-78
2023/11/27 07:37:53;;;;;;;;;;;;;;;2.15;100.00;99793.97;6186728;23;19919;-79
2023/11/27 07:40:18;;;;;;;;;;;;;;;2.20;100.00;99772.25;6190881;23;19994;-79
2023/11/27 07:42:44;;;;;;;;;;;;;;;2.13;100.00;99777.38;6191838;23;19916;-79
2023/11/27 07:45:09;;;;;;;;;;;;;;;2.21;100.00;99765.91;6184134;23;19919;-79
2023/11/27 07:47:35;;;;;;;;;;;;;;;2.19;100.00;99765.28;6196684;23;19965;-78
2023/11/27 07:50:00;;;;;;;;;;;;;;;2.19;100.00;99766.09;6190364;23;19991;-78
2023/11/27 07:55:44;;;;;;;;;;;;;;;2.22;100.00;99752.50;6214718;23;20428;-79
2023/11/27 07:58:21;;;;;;;;;;;;;;;2.20;100.00;99746.53;6215506;23;19916;-79
2023/11/27 08:00:53;;;;;;;;;;;;;;;2.18;100.00;99745.03;6213497;23;20396;-78
2023/11/27 08:03:18;;;;;;;;;;;;;;;2.20;100.00;99740.41;6215037;23;19986;-78
2023/11/27 08:05:47;;;;;;;;;;;;;;;2.19;100.00;99739.53;6218399;23;19923;-78
2023/11/27 08:11:46;;;;;;;;;;;;;;;2.24;100.00;99723.09;6232748;23;19947;-79
2023/11/27 08:14:13;;;;;;;;;;;;;;;2.24;100.00;99723.09;6215498;23;19986;-79
2023/11/27 08:16:46;;;;;;;;;;;;;;;2.24;100.00;99710.66;6214377;23;19919;-79
2023/11/27 08:19:13;;;;;;;;;;;;;;;2.24;100.00;99715.97;6216246;23;19919;-79
2023/11/27 08:21:39;;;;;;;;;;;;;;;2.20;100.00;99704.03;6213661;23;19966;-79
2023/11/27 08:24:05;;;;;;;;;;;;;;;2.17;100.00;99707.03;6214169;23;19912;-80
2023/11/27 08:26:39;;;;;;;;;;;;;;;2.19;100.00;99697.06;6215052;23;19923;-79
2023/11/27 08:29:04;;;;;;;;;;;;;;;2.15;100.00;99701.06;6214052;23;19912;-79
2023/11/27 08:31:31;;;;;;;;;;;;;;;2.10;100.00;99696.25;6214911;23;19916;-79
2023/11/27 08:33:57;;;;;;;;;;;;;;;2.09;100.00;99691.94;6215645;23;19918;-79
2023/11/27 08:36:24;;;;;;;;;;;;;;;2.08;100.00;99687.63;6213610;23;20211;-79
2023/11/27 08:38:52;;;;;;;;;;;;;;;2.06;100.00;99683.50;6214533;23;19916;-78
2023/11/27 08:41:17;;;;;;;;;;;;;;;2.03;100.00;99674.03;6214911;23;19999;-78
2023/11/27 08:43:42;;;;;;;;;;;;;;;2.06;100.00;99680.84;6214134;23;19958;-79
2023/11/27 08:46:07;;;;;;;;;;;;;;;2.05;100.00;99665.91;6214400;23;19919;-79
2023/11/27 08:48:32;;;;;;;;;;;;;;;2.06;100.00;99670.22;6214206;23;19912;-78
2023/11/27 08:50:58;;;;;;;;;;;;;;;2.01;100.00;99673.41;6187491;23;19922;-79
2023/11/27 08:53:27;;;;;;;;;;;;;;;2.05;100.00;99656.13;6214373;23;19986;-79
2023/11/27 08:55:55;;;;;;;;;;;;;;;1.98;100.00;99663.13;6216643;23;19916;-79
2023/11/27 08:58:20;;;;;;;;;;;;;;;1.89;100.00;99664.97;6216223;23;19912;-79
2023/11/27 09:00:48;;;;;;;;;;;;;;;1.92;100.00;99659.31;6216322;23;20347;-79
2023/11/27 09:03:14;;;;;;;;;;;;;;;1.93;100.00;99654.84;6215914;23;20316;-79
2023/11/27 09:05:42;;;;;;;;;;;;;;;1.93;100.00;99650.38;6216198;23;20252;-79
2023/11/27 09:08:07;;;;;;;;;;;;;;;1.93;100.00;99644.22;6218724;23;19919;-80
2023/11/27 09:10:33;;;;;;;;;;;;;;;1.97;100.00;99641.03;6231564;23;19951;-79
2023/11/27 09:12:58;;;;;;;;;;;;;;;1.99;100.00;99627.63;6216764;23;19912;-79
2023/11/27 09:15:23;;;;;;;;;;;;;;;1.93;100.00;99634.44;6216617;23;19916;-79
2023/11/27 09:17:49;;;;;;;;;;;;;;;1.92;100.00;99627.47;6215303;23;19947;-79
2023/11/27 09:20:15;;;;;;;;;;;;;;;1.93;100.00;99623.84;6216557;23;20379;-80
2023/11/27 09:22:43;;;;;;;;;;;;;;;1.99;100.00;99621.47;6213231;23;19947;-80
2023/11/27 09:25:20;;;;;;;;;;;;;;;1.94;100.00;99620.16;6215769;23;19919;-80
2023/11/27 09:27:58;;;;;;;;;;;;;;;2.02;100.00;99616.66;6216356;23;19986;-79
2023/11/27 09:30:41;;;;;;;;;;;;;;;2.00;100.00;99612.50;6216440;23;19912;-80
2023/11/27 09:33:07;;;;;;;;;;;;;;;1.94;100.00;99609.53;6216446;23;19978;-80
2023/11/27 09:35:52;;;;;;;;;;;;;;;1.99;100.00;99600.22;6216670;23;19916;-80
2023/11/27 09:38:43;;;;;;;;;;;;;;;1.99;100.00;99606.38;6213969;23;19912;-80
2023/11/27 09:41:08;;;;;;;;;;;;;;;2.02;100.00;99594.59;6217436;23;19988;-80
2023/11/27 09:43:42;;;;;;;;;;;;;;;2.02;100.00;99589.28;6215671;23;19951;-80
2023/11/27 09:46:09;;;;;;;;;;;;;;;1.98;100.00;99583.50;6187977;23;20321;-80
2023/11/27 09:48:41;;;;;;;;;;;;;;;2.00;100.00;99580.66;6191469;23;20210;-79
2023/11/27 09:51:10;;;;;;;;;;;;;;;1.96;100.00;99578.34;6189640;23;20291;-79
2023/11/27 09:53:50;;;;;;;;;;;;;;;2.02;100.00;99576.00;6215152;23;19915;-80
2023/11/27 09:56:15;;;;;;;;;;;;;;;2.04;100.00;99579.31;6217138;23;20322;-80
2023/11/27 09:58:43;;;;;;;;;;;;;;;2.02;100.00;99570.69;6215718;23;19919;-80
2023/11/27 10:01:12;;;;;;;;;;;;;;;2.02;100.00;99563.56;6216344;23;19963;-79
2023/11/27 10:03:46;;;;;;;;;;;;;;;2.04;100.00;99561.56;6217411;23;19935;-80
2023/11/27 10:06:12;;;;;;;;;;;;;;;2.02;100.00;99557.44;6186980;23;19912;-79
2023/11/27 10:08:37;;;;;;;;;;;;;;;2.07;100.00;99545.28;6215593;23;19908;-80
2023/11/27 10:11:03;;;;;;;;;;;;;;;2.03;100.00;99548.47;6190457;23;19986;-80
2023/11/27 10:13:41;;;;;;;;;;;;;;;1.98;100.00;99541.03;6214770;23;19969;-80
2023/11/27 10:16:09;;;;;;;;;;;;;;;1.99;100.00;99533.88;6215865;23;19923;-80
2023/11/27 10:18:34;;;;;;;;;;;;;;;1.99;100.00;99529.41;6217473;23;19919;-79
2023/11/27 10:20:59;;;;;;;;;;;;;;;1.95;100.00;99522.78;6215085;23;19951;-79
2023/11/27 10:23:27;;;;;;;;;;;;;;;1.93;100.00;99520.31;6216993;23;20359;-80
2023/11/27 10:25:56;;;;;;;;;;;;;;;2.00;100.00;99517.78;6219434;23;20288;-80
2023/11/27 10:28:21;;;;;;;;;;;;;;;1.93;100.00;99515.00;6220651;23;19911;-80
2023/11/27 10:30:47;;;;;;;;;;;;;;;1.93;100.00;99508.88;6221354;23;19919;-80
2023/11/27 10:33:13;;;;;;;;;;;;;;;1.84;100.00;99501.97;6219725;23;19907;-80
2023/11/27 10:35:41;;;;;;;;;;;;;;;1.83;100.00;99501.13;6191149;23;19934;-80
2023/11/27 10:38:13;;;;;;;;;;;;;;;1.86;100.00;99484.84;6219371;23;19955;-79
2023/11/27 10:40:39;;;;;;;;;;;;;;;1.83;100.00;99476.44;6217579;23;19912;-79
2023/11/27 10:43:04;;;;;;;;;;;;;;;1.75;100.00;99469.34;6214302;23;19956;-80
2023/11/27 10:45:30;;;;;;;;;;;;;;;1.85;100.00;99453.19;6215187;23;19923;-79
2023/11/27 10:47:56;;;;;;;;;;;;;;;1.81;100.00;99450.88;6215608;23;20280;-79
2023/11/27 10:50:25;;;;;;;;;;;;;;;1.79;100.00;99449.38;6214597;23;19986;-79
2023/11/27 10:52:50;;;;;;;;;;;;;;;1.70;100.00;99453.09;6214505;23;20374;-79
2023/11/27 10:55:19;;;;;;;;;;;;;;;1.74;100.00;99433.19;6188469;23;19911;-79
2023/11/27 10:57:45;;;;;;;;;;;;;;;1.74;100.00;99438.50;6215044;23;19994;-79
2023/11/27 11:00:18;;;;;;;;;;;;;;;1.67;100.00;99428.56;6214674;23;19942;-78
2023/11/27 11:02:48;;;;;;;;;;;;;;;1.63;100.00;99426.44;6215130;23;19919;-79
2023/11/27 11:05:14;;;;;;;;;;;;;;;1.59;100.00;99418.00;6216009;23;20388;-79
2023/11/27 11:07:41;;;;;;;;;;;;;;;1.57;100.00;99406.75;6219233;23;19912;-79
2023/11/27 11:10:10;;;;;;;;;;;;;;;1.52;100.00;99414.41;6219962;23;19984;-79
2023/11/27 11:12:36;;;;;;;;;;;;;;;1.57;100.00;99414.72;6215383;23;19946;-79
2023/11/27 11:15:02;;;;;;;;;;;;;;;1.67;100.00;99410.00;6215168;23;19912;-80
2023/11/27 11:17:34;;;;;;;;;;;;;;;1.71;100.00;99412.31;6188354;23;19986;-80
2023/11/27 11:20:18;;;;;;;;;;;;;;;1.70;100.00;99418.63;6214178;23;19916;-80
2023/11/27 11:22:56;;;;;;;;;;;;;;;1.66;100.00;99410.19;6214298;23;20045;-80
2023/11/27 11:25:28;;;;;;;;;;;;;;;1.62;100.00;99403.56;6215829;23;19919;-80
2023/11/27 11:28:26;;;;;;;;;;;;;;;1.65;100.00;99400.56;6214651;23;19970;-80
2023/11/27 11:31:10;;;;;;;;;;;;;;;1.69;100.00;99391.25;6179469;23;20233;-80
2023/11/27 11:33:35;;;;;;;;;;;;;;;1.68;100.00;99392.25;6204380;23;19947;-80
2023/11/27 11:36:13;;;;;;;;;;;;;;;1.69;100.00;99385.94;6216677;23;19908;-81
2023/11/27 11:38:45;;;;;;;;;;;;;;;1.67;100.00;99383.47;6189307;23;19939;-80
2023/11/27 11:41:12;;;;;;;;;;;;;;;1.71;100.00;99380.47;6209422;23;20002;-81
2023/11/27 11:43:41;;;;;;;;;;;;;;;1.70;100.00;99369.03;6214533;23;19935;-81
2023/11/27 11:46:13;;;;;;;;;;;;;;;1.70;100.00;99362.91;6215441;23;19912;-81
2023/11/27 11:48:39;;;;;;;;;;;;;;;1.70;100.00;99373.50;6216524;23;19923;-81
2023/11/27 11:51:15;;;;;;;;;;;;;;;1.75;100.00;99355.25;6194436;23;20112;-80
2023/11/27 11:53:43;;;;;;;;;;;;;;;1.73;100.00;99350.09;6229397;23;19982;-81
2023/11/27 11:56:19;;;;;;;;;;;;;;;1.79;100.00;99341.44;6216469;23;19919;-80
2023/11/27 11:58:44;;;;;;;;;;;;;;;1.79;100.00;99340.59;6214433;23;19923;-81
2023/11/27 12:01:09;;;;;;;;;;;;;;;1.83;100.00;99336.59;6189880;23;20248;-81
2023/11/27 12:03:36;;;;;;;;;;;;;;;1.73;100.00;99331.53;6221538;23;20128;-81
2023/11/27 12:06:13;;;;;;;;;;;;;;;1.78;100.00;99334.50;6227660;23;19916;-81
2023/11/27 12:08:49;;;;;;;;;;;;;;;1.82;100.00;99329.66;6228132;23;20384;-81
2023/11/27 12:11:42;;;;;;;;;;;;;;;1.82;100.00;99332.28;6215427;23;19919;-81
2023/11/27 12:14:18;;;;;;;;;;;;;;;1.83;100.00;99325.19;6214482;23;19916;-81
2023/11/27 12:16:46;;;;;;;;;;;;;;;1.89;100.00;99313.84;6190651;23;19975;-81
2023/11/27 12:19:19;;;;;;;;;;;;;;;1.91;100.00;99302.06;6214496;23;19947;-81
2023/11/27 12:21:44;;;;;;;;;;;;;;;1.88;100.00;99307.72;6196700;23;20273;-81
2023/11/27 12:24:11;;;;;;;;;;;;;;;1.91;100.00;99291.44;6214609;23;19912;-82
2023/11/27 12:26:54;;;;;;;;;;;;;;;1.90;100.00;99299.56;6201520;23;19939;-81
2023/11/27 12:29:19;;;;;;;;;;;;;;;1.86;100.00;99288.50;6214295;23;19912;-81
2023/11/27 12:31:50;;;;;;;;;;;;;;;1.87;100.00;99284.00;6216900;23;19958;-81
2023/11/27 12:34:16;;;;;;;;;;;;;;;1.90;100.00;99273.03;6188354;23;19995;-81
2023/11/27 12:36:47;;;;;;;;;;;;;;;1.95;100.00;99276.78;6216695;23;19912;-81
2023/11/27 12:39:16;;;;;;;;;;;;;;;1.96;100.00;99265.16;6136725;23;19946;-81
2023/11/27 12:41:47;;;;;;;;;;;;;;;1.95;100.00;99257.41;6216025;23;20267;-81
2023/11/27 12:47:19;;;;;;;;;;;;;;;1.99;100.00;99255.19;6217443;23;19935;-81
2023/11/27 12:49:48;;;;;;;;;;;;;;;1.99;100.00;99249.88;6215744;23;19916;-81
2023/11/27 12:55:30;;;;;;;;;;;;;;;1.97;100.00;99242.13;6215721;23;20051;-82